createdAt,value
2023-04-10T00:03:59.332Z,8.24
2023-04-10T00:09:01.528Z,8.24
2023-04-10T00:14:03.003Z,8.14
2023-04-10T00:19:04.498Z,8.06
2023-04-10T00:24:06.141Z,8.02
2023-04-10T00:29:08.233Z,8.09
2023-04-10T00:34:09.833Z,8.06
2023-04-10T00:39:11.511Z,8.00
2023-04-10T00:44:13.019Z,7.95
2023-04-10T00:49:14.744Z,7.98
2023-04-10T00:54:16.806Z,7.96
2023-04-10T00:59:18.958Z,7.97
2023-04-10T01:04:22.420Z,7.93
2023-04-10T01:09:36.798Z,7.85
2023-04-10T01:14:49.392Z,7.85
2023-04-10T01:20:01.295Z,7.80
2023-04-10T01:25:21.750Z,7.66
2023-04-10T01:30:23.464Z,7.65
2023-04-10T01:35:27.021Z,7.65
2023-04-10T01:40:29.761Z,7.60
2023-04-10T01:45:31.804Z,7.46
2023-04-10T01:50:34.757Z,7.29
2023-04-10T01:55:38.302Z,7.30
2023-04-10T02:00:41.894Z,7.30
2023-04-10T02:05:52.449Z,7.29
2023-04-10T02:11:03.501Z,7.23
2023-04-10T02:16:09.140Z,7.22
2023-04-10T02:21:11.589Z,7.23
2023-04-10T02:26:13.104Z,7.25
2023-04-10T02:31:14.678Z,7.27
2023-04-10T02:36:16.389Z,7.31
2023-04-10T02:41:17.956Z,7.31
2023-04-10T02:46:19.489Z,7.31
2023-04-10T02:51:21.264Z,7.32
2023-04-10T02:56:22.940Z,7.34
2023-04-10T03:01:24.437Z,7.29
2023-04-10T03:06:28.891Z,7.25
2023-04-10T03:11:30.680Z,7.17
2023-04-10T03:16:32.276Z,7.00
2023-04-10T03:21:34.058Z,6.86
2023-04-10T03:26:35.693Z,6.92
2023-04-10T03:31:37.506Z,6.93
2023-04-10T03:36:39.060Z,6.88
2023-04-10T03:41:40.588Z,6.80
2023-04-10T03:46:42.099Z,6.84
2023-04-10T03:51:43.589Z,6.90
2023-04-10T03:56:45.201Z,6.94
2023-04-10T04:01:46.947Z,6.93
2023-04-10T04:06:48.763Z,6.93
2023-04-10T04:11:50.343Z,7.00
2023-04-10T04:16:51.968Z,7.12
2023-04-10T04:21:53.446Z,7.13
2023-04-10T04:26:56.462Z,7.12
2023-04-10T04:31:58.038Z,7.22
2023-04-10T04:36:59.609Z,7.38
2023-04-10T04:42:01.477Z,7.49
2023-04-10T04:47:02.974Z,7.45
2023-04-10T04:52:04.631Z,7.64
2023-04-10T04:57:07.202Z,7.78
2023-04-10T05:02:09.140Z,7.70
2023-04-10T05:07:11.173Z,7.69
2023-04-10T05:12:12.710Z,7.86
2023-04-10T05:17:15.503Z,7.98
2023-04-10T05:22:18.505Z,8.01
2023-04-10T05:27:20.439Z,8.16
2023-04-10T05:32:21.959Z,8.32
2023-04-10T05:37:23.500Z,8.30
2023-04-10T05:42:25.089Z,8.25
2023-04-10T05:47:26.632Z,8.37
2023-04-10T05:52:28.236Z,8.42
2023-04-10T05:57:30.813Z,8.38
2023-04-10T06:02:33.219Z,8.39
2023-04-10T06:07:34.948Z,8.59
2023-04-10T06:12:36.964Z,8.67
2023-04-10T06:17:43.597Z,8.92
2023-04-10T06:22:45.421Z,8.97
2023-04-10T06:27:47.039Z,9.10
2023-04-10T06:32:48.538Z,9.32
2023-04-10T06:37:50.085Z,9.40
2023-04-10T06:42:51.579Z,9.27
2023-04-10T06:47:53.534Z,9.26
2023-04-10T06:52:56.462Z,9.20
2023-04-10T06:57:57.942Z,9.28
2023-04-10T07:02:59.468Z,9.47
2023-04-10T07:08:01.120Z,9.81
2023-04-10T07:13:03.000Z,10.00
2023-04-10T07:18:06.318Z,10.15
2023-04-10T07:23:07.863Z,10.25
2023-04-10T07:28:09.385Z,10.45
2023-04-10T07:33:11.244Z,10.65
2023-04-10T07:38:13.376Z,10.86
2023-04-10T07:43:14.922Z,10.99
2023-04-10T07:48:16.786Z,11.12
2023-04-10T07:53:18.329Z,11.25
2023-04-10T07:58:19.914Z,11.31
2023-04-10T08:03:21.598Z,11.46
2023-04-10T08:08:23.237Z,11.58
2023-04-10T08:13:24.708Z,11.73
2023-04-10T08:18:26.398Z,11.86
2023-04-10T08:23:27.973Z,11.99
2023-04-10T08:28:29.444Z,12.19
2023-04-10T08:33:31.627Z,12.35
2023-04-10T08:38:33.119Z,12.55
2023-04-10T08:43:35.499Z,12.71
2023-04-10T08:48:45.759Z,12.82
2023-04-10T08:53:51.348Z,13.10
2023-04-10T08:58:53.415Z,13.25
2023-04-10T09:03:55.216Z,13.37
2023-04-10T09:08:57.772Z,13.45
2023-04-10T09:13:59.291Z,13.52
2023-04-10T09:19:03.453Z,13.65
2023-04-10T09:24:06.609Z,13.73
2023-04-10T09:29:10.489Z,13.73
2023-04-10T09:34:16.816Z,13.82
2023-04-10T09:39:18.857Z,13.89
2023-04-10T09:44:32.291Z,14.03
2023-04-10T09:49:48.601Z,14.17
2023-04-10T09:54:50.330Z,14.30
2023-04-10T09:59:57.368Z,14.42
2023-04-10T10:05:02.633Z,14.58
2023-04-10T10:10:07.337Z,14.74
2023-04-10T10:15:44.673Z,14.86
2023-04-10T10:20:47.299Z,14.94
2023-04-10T10:25:50.075Z,15.08
2023-04-10T10:30:52.668Z,15.22
2023-04-10T10:35:54.750Z,15.37
2023-04-10T10:41:25.886Z,15.59
2023-04-10T10:47:15.806Z,15.74
2023-04-10T10:52:39.118Z,15.92
2023-04-10T10:57:46.592Z,16.12
2023-04-10T11:03:07.259Z,15.97
2023-04-10T11:08:09.306Z,15.88
2023-04-10T11:13:18.422Z,15.94
2023-04-10T11:18:21.033Z,16.00
2023-04-10T11:23:22.549Z,16.04
2023-04-10T11:28:33.293Z,16.06
2023-04-10T11:33:34.988Z,16.10
2023-04-10T11:38:37.341Z,16.22
2023-04-10T11:43:39.407Z,16.43
2023-04-10T11:48:41.254Z,16.72
2023-04-10T11:53:42.994Z,16.88
2023-04-10T11:58:45.066Z,16.91
2023-04-10T12:03:46.678Z,16.72
2023-04-10T12:08:51.417Z,16.54
2023-04-10T12:13:54.868Z,15.96
2023-04-10T12:18:57.237Z,15.50
2023-04-10T12:23:59.319Z,15.55
2023-04-10T12:29:00.879Z,15.79
2023-04-10T12:34:05.412Z,16.16
2023-04-10T12:39:22.642Z,16.49
2023-04-10T12:44:24.176Z,16.79
2023-04-10T12:49:25.670Z,17.06
2023-04-10T12:54:33.323Z,17.08
2023-04-10T12:59:34.927Z,16.88
2023-04-10T13:04:36.798Z,16.46
2023-04-10T13:09:39.093Z,16.12
2023-04-10T13:14:40.685Z,15.79
2023-04-10T13:19:42.165Z,15.64
2023-04-10T13:24:44.212Z,15.57
2023-04-10T13:29:46.148Z,15.44
2023-04-10T13:34:47.625Z,15.41
2023-04-10T13:39:49.123Z,15.51
2023-04-10T13:44:50.615Z,15.61
2023-04-10T13:49:52.132Z,15.69
2023-04-10T13:54:53.676Z,15.99
2023-04-10T13:59:55.635Z,16.31
2023-04-10T14:04:57.214Z,16.58
2023-04-10T14:10:00.475Z,16.79
2023-04-10T14:15:02.115Z,16.91
2023-04-10T14:20:04.300Z,16.79
2023-04-10T14:25:13.287Z,16.68
2023-04-10T14:30:15.578Z,16.63
2023-04-10T14:35:17.113Z,16.75
2023-04-10T14:40:18.664Z,16.82
2023-04-10T14:45:20.198Z,16.78
2023-04-10T14:50:21.829Z,16.66
2023-04-10T14:55:24.826Z,16.52
2023-04-10T15:00:33.161Z,16.71
2023-04-10T15:05:34.746Z,16.98
2023-04-10T15:10:36.273Z,17.14
2023-04-10T15:15:37.753Z,17.15
2023-04-10T15:20:39.244Z,17.11
2023-04-10T15:25:40.745Z,17.12
2023-04-10T15:30:45.330Z,17.06
2023-04-10T15:35:51.730Z,17.05
2023-04-10T15:40:53.289Z,17.01
2023-04-10T15:45:54.958Z,16.90
2023-04-10T15:50:56.593Z,16.73
2023-04-10T15:55:58.509Z,16.66
2023-04-10T16:01:00.813Z,16.66
2023-04-10T16:06:02.349Z,16.61
2023-04-10T16:11:03.960Z,16.66
2023-04-10T16:16:08.625Z,16.69
2023-04-10T16:21:12.961Z,16.70
2023-04-10T16:26:14.589Z,16.65
2023-04-10T16:31:16.543Z,16.64
2023-04-10T16:36:18.183Z,16.42
2023-04-10T16:41:21.081Z,16.21
2023-04-10T16:46:22.739Z,15.98
2023-04-10T16:51:24.896Z,15.75
2023-04-10T16:56:27.018Z,15.55
2023-04-10T17:01:28.680Z,15.31
2023-04-10T17:06:31.298Z,15.07
2023-04-10T17:11:32.880Z,14.83
2023-04-10T17:16:34.651Z,14.61
2023-04-10T17:21:36.193Z,14.43
2023-04-10T17:26:37.836Z,14.24
2023-04-10T17:31:39.371Z,14.08
2023-04-10T17:36:42.315Z,13.89
2023-04-10T17:41:43.920Z,13.67
2023-04-10T17:46:46.444Z,13.47
2023-04-10T17:51:48.474Z,13.24
2023-04-10T17:56:52.779Z,13.01
2023-04-10T18:01:54.851Z,12.80
2023-04-10T18:06:56.529Z,12.60
2023-04-10T18:11:58.018Z,12.39
2023-04-10T18:16:59.530Z,12.24
2023-04-10T18:22:01.035Z,12.18
2023-04-10T18:27:03.310Z,12.04
2023-04-10T18:32:07.565Z,11.86
2023-04-10T18:37:10.033Z,11.68
2023-04-10T18:42:11.716Z,11.53
2023-04-10T18:47:13.751Z,11.40
2023-04-10T18:52:15.264Z,11.29
2023-04-10T18:57:16.745Z,11.21
2023-04-10T19:02:18.624Z,11.18
2023-04-10T19:07:20.472Z,11.15
2023-04-10T19:12:21.958Z,11.18
2023-04-10T19:17:24.974Z,11.27
2023-04-10T19:22:26.647Z,11.32
2023-04-10T19:27:28.473Z,11.31
2023-04-10T19:32:30.022Z,11.25
2023-04-10T19:37:31.552Z,11.13
2023-04-10T19:42:36.641Z,10.96
2023-04-10T19:47:38.354Z,10.80
2023-04-10T19:52:39.941Z,10.68
2023-04-10T19:57:41.480Z,10.58
2023-04-10T20:02:43.500Z,10.46
2023-04-10T20:07:45.433Z,10.41
2023-04-10T20:12:46.970Z,10.41
2023-04-10T20:17:48.556Z,10.33
2023-04-10T20:22:50.194Z,10.22
2023-04-10T20:27:51.725Z,10.12
2023-04-10T20:32:53.250Z,9.99
2023-04-10T20:37:54.900Z,9.85
2023-04-10T20:42:56.396Z,9.69
2023-04-10T20:47:58.017Z,9.53
2023-04-10T20:52:59.838Z,9.37
2023-04-10T20:58:01.308Z,9.16
2023-04-10T21:03:03.005Z,9.04
2023-04-10T21:08:04.800Z,8.99
2023-04-10T21:13:06.315Z,8.90
2023-04-10T21:18:08.020Z,8.78
2023-04-10T21:23:09.519Z,8.69
2023-04-10T21:28:10.983Z,8.65
2023-04-10T21:33:12.743Z,8.56
2023-04-10T21:38:14.655Z,8.46
2023-04-10T21:43:16.179Z,8.27
2023-04-10T21:48:19.574Z,8.11
2023-04-10T21:53:21.312Z,8.04
2023-04-10T21:58:22.801Z,8.03
2023-04-10T22:03:24.475Z,8.04
2023-04-10T22:08:26.301Z,7.98
2023-04-10T22:13:31.210Z,7.85
2023-04-10T22:18:33.347Z,7.68
2023-04-10T22:23:34.860Z,7.60
2023-04-10T22:28:36.386Z,7.58
2023-04-10T22:33:37.984Z,7.56
2023-04-10T22:38:39.588Z,7.46
2023-04-10T22:43:41.063Z,7.34
2023-04-10T22:48:43.149Z,7.22
2023-04-10T22:53:45.649Z,7.14
2023-04-10T22:58:47.164Z,7.11
2023-04-10T23:03:52.842Z,7.02
2023-04-10T23:08:54.859Z,6.95
2023-04-10T23:13:56.631Z,6.91
2023-04-10T23:18:58.230Z,6.86
2023-04-10T23:23:59.714Z,6.78
2023-04-10T23:29:01.184Z,6.65
2023-04-10T23:34:03.429Z,6.58
2023-04-10T23:39:04.929Z,6.58
2023-04-10T23:44:06.468Z,6.60
2023-04-10T23:49:08.034Z,6.58
2023-04-10T23:54:09.542Z,6.54
2023-04-10T23:59:11.021Z,6.46
